Time;durP1;ratioP1;P1;durP2;ratioP2;P2;SDS_P1;SDS_P2;PMS_P1;PMS_P2;Temp;Humidity;BMP_temperature;BMP_pressure;BME280_temperature;BME280_humidity;BME280_pressure;Samples;Min_cycle;Max_cycle;Signal;HPM_P1;HPM_P2
2022/05/04 00:01:08;;;;;;;8.82;3.90;;;;;;;6.77;35.23;99246.53;5054719;28;20043;-78
2022/05/04 00:03:39;;;;;;;8.60;3.88;;;;;;;6.76;35.25;99236.84;5072433;28;20487;-77
2022/05/04 00:06:09;;;;;;;9.40;3.67;;;;;;;6.72;35.75;99238.88;5071697;28;20045;-76
2022/05/04 00:08:35;;;;;;;14.38;4.47;;;;;;;6.72;35.50;99238.03;5054947;28;20139;-76
2022/05/04 00:11:02;;;;;;;8.85;3.75;;;;;;;6.70;35.52;99240.78;5054560;28;20140;-78
2022/05/04 00:13:28;;;;;;;11.38;4.00;;;;;;;6.69;35.60;99236.41;5089102;28;20064;-77
2022/05/04 00:15:54;;;;;;;8.85;3.78;;;;;;;6.70;35.61;99229.31;5071923;28;20063;-76
2022/05/04 00:18:20;;;;;;;10.70;4.25;;;;;;;6.69;35.40;99232.91;5071948;28;20491;-77
2022/05/04 00:20:46;;;;;;;13.38;3.70;;;;;;;6.63;35.66;99225.34;5088051;28;20036;-78
2022/05/04 00:23:12;;;;;;;9.45;3.88;;;;;;;6.65;35.49;99236.72;5088079;28;20517;-78
2022/05/04 00:25:38;;;;;;;10.75;4.18;;;;;;;6.61;35.68;99224.59;5073555;28;20052;-80
2022/05/04 00:28:05;;;;;;;10.68;3.35;;;;;;;6.55;35.65;99228.53;5058554;28;20078;-78
2022/05/04 00:30:32;;;;;;;12.75;4.38;;;;;;;6.54;36.12;99230.31;5075161;28;20036;-78
2022/05/04 00:32:59;;;;;;;11.60;4.63;;;;;;;6.45;36.66;99230.91;5041749;28;20051;-79
2022/05/04 00:35:25;;;;;;;15.73;5.25;;;;;;;6.44;36.47;99223.91;5076167;28;20063;-79
2022/05/04 00:37:51;;;;;;;9.73;5.13;;;;;;;6.48;36.56;99225.41;5076376;28;20044;-78
2022/05/04 00:40:16;;;;;;;13.50;6.38;;;;;;;6.49;36.38;99224.44;5074819;28;20381;-78
2022/05/04 00:42:42;;;;;;;13.10;6.60;;;;;;;6.54;36.16;99225.00;5074761;28;20483;-77
2022/05/04 00:45:09;;;;;;;20.98;6.25;;;;;;;6.54;36.13;99219.69;5092029;28;20072;-77
2022/05/04 00:47:35;;;;;;;20.75;6.47;;;;;;;6.49;36.27;99210.31;5041523;28;20048;-77
2022/05/04 00:50:04;;;;;;;12.93;6.25;;;;;;;6.57;36.21;99226.59;5074709;28;20047;-78
2022/05/04 00:52:35;;;;;;;15.68;6.53;;;;;;;6.62;36.02;99215.66;5074788;28;20411;-77
2022/05/04 00:55:03;;;;;;;12.05;7.05;;;;;;;6.65;36.31;99220.78;5075539;28;20064;-78
2022/05/04 01:00:15;;;;;;;17.55;7.05;;;;;;;6.69;36.48;99216.97;5095592;28;20051;-78
2022/05/04 01:02:41;;;;;;;20.05;6.88;;;;;;;6.71;36.50;99212.41;5078124;28;20051;-79
2022/05/04 01:05:11;;;;;;;12.85;6.85;;;;;;;6.76;36.17;99210.28;5077716;28;20052;-78
2022/05/04 01:07:42;;;;;;;12.10;6.43;;;;;;;6.80;36.17;99222.41;5076393;28;20032;-77
2022/05/04 01:10:10;;;;;;;16.10;6.35;;;;;;;6.75;36.75;99211.25;5058238;28;20500;-78
2022/05/04 01:12:44;;;;;;;12.90;6.78;;;;;;;6.60;36.98;99202.50;5057778;28;20076;-78
2022/05/04 01:15:10;;;;;;;15.10;6.80;;;;;;;6.70;36.87;99213.38;5074354;28;20047;-77
2022/05/04 01:17:36;;;;;;;20.30;6.68;;;;;;;6.80;36.43;99215.28;5074290;28;20047;-78
2022/05/04 01:20:02;;;;;;;15.77;6.07;;;;;;;6.81;36.49;99221.50;5074569;28;20138;-77
2022/05/04 01:22:29;;;;;;;14.60;5.82;;;;;;;6.79;36.04;99204.78;5077514;28;20048;-78
2022/05/04 01:24:54;;;;;;;18.48;6.63;;;;;;;6.89;36.27;99223.63;5044712;28;20554;-78
2022/05/04 01:27:20;;;;;;;14.18;5.57;;;;;;;6.93;36.24;99215.34;5094704;28;20044;-78
2022/05/04 01:29:48;;;;;;;20.80;5.82;;;;;;;6.97;36.04;99221.31;5095534;28;20084;-78
2022/05/04 01:32:14;;;;;;;13.38;5.40;;;;;;;6.99;36.28;99209.59;5060497;28;20040;-78
2022/05/04 01:34:40;;;;;;;11.85;4.93;;;;;;;7.00;36.28;99211.31;5094180;28;20139;-77
2022/05/04 01:37:05;;;;;;;12.02;4.15;;;;;;;7.10;36.07;99216.84;5043167;28;20139;-78
2022/05/04 01:39:31;;;;;;;10.55;4.80;;;;;;;7.16;35.85;99210.28;5077117;28;20109;-77
2022/05/04 01:42:03;;;;;;;10.95;4.20;;;;;;;7.17;35.84;99210.16;5095080;28;20546;-78
2022/05/04 01:44:30;;;;;;;10.15;4.28;;;;;;;7.16;36.18;99207.63;5060593;28;20188;-77
2022/05/04 01:46:56;;;;;;;13.05;4.40;;;;;;;7.18;35.90;99208.34;5095694;28;20070;-78
2022/05/04 01:49:22;;;;;;;12.57;4.32;;;;;;;7.27;35.86;99207.75;5077797;28;20433;-79
2022/05/04 01:51:47;;;;;;;10.75;4.68;;;;;;;7.34;35.58;99206.38;5095441;28;20040;-77
2022/05/04 01:54:14;;;;;;;11.30;4.22;;;;;;;7.33;36.01;99207.31;5095300;28;20126;-78
2022/05/04 01:56:40;;;;;;;13.77;4.05;;;;;;;7.43;35.65;99208.38;5095120;28;20044;-78
2022/05/04 01:59:06;;;;;;;21.08;3.92;;;;;;;7.52;35.30;99209.53;5093955;28;20047;-78
2022/05/04 02:01:32;;;;;;;13.45;4.00;;;;;;;7.58;35.11;99217.09;5094797;28;20130;-78
2022/05/04 02:03:59;;;;;;;11.15;4.20;;;;;;;7.61;35.26;99197.44;5095088;28;20070;-79
2022/05/04 02:06:26;;;;;;;13.35;4.50;;;;;;;7.76;34.87;99222.97;5044378;28;20437;-77
2022/05/04 02:08:52;;;;;;;7.75;4.40;;;;;;;7.79;34.88;99220.09;5043486;28;20085;-78
2022/05/04 02:11:18;;;;;;;9.65;3.45;;;;;;;7.69;35.56;99224.34;5043098;28;20039;-77
2022/05/04 02:13:44;;;;;;;14.27;3.97;;;;;;;7.73;34.89;99215.19;5059995;28;20047;-78
2022/05/04 02:16:10;;;;;;;11.15;3.90;;;;;;;7.88;35.19;99216.75;5076464;28;20044;-77
2022/05/04 02:18:36;;;;;;;11.25;4.50;;;;;;;7.91;34.89;99202.41;5043066;28;20097;-78
2022/05/04 02:21:02;;;;;;;14.55;4.40;;;;;;;8.06;34.63;99221.75;5093453;28;20127;-78
2022/05/04 02:23:28;;;;;;;17.67;4.47;;;;;;;8.03;34.61;99212.16;5059731;28;20048;-78
2022/05/04 02:25:54;;;;;;;11.98;4.20;;;;;;;7.94;35.11;99213.66;5059554;28;20043;-78
2022/05/04 02:28:20;;;;;;;13.52;4.68;;;;;;;7.98;34.84;99212.50;5094488;28;20052;-77
2022/05/04 02:30:48;;;;;;;14.38;4.72;;;;;;;8.10;34.52;99207.25;5059776;28;20043;-78
2022/05/04 02:33:14;;;;;;;19.05;4.80;;;;;;;8.10;34.84;99202.78;5059270;28;20048;-77
2022/05/04 02:38:24;;;;;;;11.98;4.90;;;;;;;8.16;34.60;99201.47;5093083;28;20047;-79
2022/05/04 02:40:50;;;;;;;24.15;5.35;;;;;;;8.27;34.89;99198.88;5075705;28;20043;-78
2022/05/04 02:43:16;;;;;;;12.93;4.85;;;;;;;8.42;34.30;99207.59;5075700;28;20044;-78
2022/05/04 02:45:42;;;;;;;19.80;5.68;;;;;;;8.48;34.44;99197.34;5075898;28;20043;-79
2022/05/04 02:48:08;;;;;;;10.95;4.72;;;;;;;8.55;34.47;99208.41;5075372;28;20048;-78
2022/05/04 02:50:35;;;;;;;12.43;5.38;;;;;;;8.60;34.28;99206.25;5093712;28;20448;-77
2022/05/04 02:53:02;;;;;;;19.73;5.18;;;;;;;8.66;34.49;99194.28;5058878;28;20093;-77
2022/05/04 02:55:27;;;;;;;17.13;5.07;;;;;;;8.84;34.10;99203.56;5041931;28;20066;-77
2022/05/04 02:57:54;;;;;;;11.18;5.00;;;;;;;8.91;34.16;99209.28;5058919;28;20064;-76
2022/05/04 03:00:20;;;;;;;25.40;5.07;;;;;;;8.98;34.30;99206.03;5075556;28;20169;-77
2022/05/04 03:02:46;;;;;;;13.68;5.25;;;;;;;9.08;34.25;99202.69;5092177;28;20040;-76
2022/05/04 03:05:14;;;;;;;15.50;4.80;;;;;;;9.15;34.05;99198.59;5059070;28;20036;-79
2022/05/04 03:07:40;;;;;;;17.35;5.85;;;;;;;9.27;33.98;99194.97;5042268;28;20407;-77
2022/05/04 03:10:07;;;;;;;14.63;5.15;;;;;;;9.32;33.99;99192.78;5075351;28;20516;-80
2022/05/04 03:12:33;;;;;;;14.85;5.25;;;;;;;9.39;33.72;99188.69;5042304;28;20517;-76
2022/05/04 03:14:59;;;;;;;13.77;5.35;;;;;;;9.46;33.95;99195.22;5058931;28;20097;-76
2022/05/04 03:17:25;;;;;;;13.95;5.05;;;;;;;9.53;34.10;99194.78;5059254;28;20105;-79
2022/05/04 03:19:52;;;;;;;13.40;4.95;;;;;;;9.58;34.27;99198.75;5058678;28;20052;-83
2022/05/04 03:22:18;;;;;;;18.42;5.20;;;;;;;9.64;34.24;99182.28;5059085;28;20036;-80
2022/05/04 03:24:44;;;;;;;20.13;5.10;;;;;;;9.80;33.82;99187.25;5075603;28;20134;-81
2022/05/04 03:27:10;;;;;;;26.50;5.38;;;;;;;9.82;34.04;99174.66;5057925;28;20067;-78
2022/05/04 03:29:36;;;;;;;14.68;4.85;;;;;;;9.98;33.59;99185.78;5042055;28;20075;-88
2022/05/04 03:32:06;;;;;;;15.95;5.85;;;;;;;10.07;34.24;99184.19;5042397;28;20038;-84
2022/05/04 03:34:31;;;;;;;37.60;6.43;;;;;;;10.05;34.28;99177.28;5059022;28;20039;-80
2022/05/04 03:37:00;;;;;;;21.70;5.53;;;;;;;10.18;34.38;99170.81;5092114;28;20040;-83
2022/05/04 03:39:27;;;;;;;21.67;6.43;;;;;;;10.41;34.26;99176.97;5075769;28;20090;-82
2022/05/04 03:41:53;;;;;;;15.07;5.85;;;;;;;10.54;33.83;99182.19;5059041;28;20487;-80
2022/05/04 03:44:19;;;;;;;22.98;6.13;;;;;;;10.74;33.73;99177.00;5075401;28;20093;-80
2022/05/04 03:46:49;;;;;;;21.48;5.80;;;;;;;10.86;33.42;99168.81;5094022;28;20047;-82
2022/05/04 03:49:17;;;;;;;26.00;5.93;;;;;;;10.96;33.14;99160.03;5093362;28;20039;-77
2022/05/04 03:51:44;;;;;;;20.58;5.90;;;;;;;11.12;33.31;99181.81;5058510;28;20054;-78
2022/05/04 03:54:10;;;;;;;17.50;5.60;;;;;;;11.23;33.14;99176.38;5092251;28;20131;-82
2022/05/04 03:56:37;;;;;;;13.02;5.05;;;;;;;11.39;33.12;99184.78;5092772;28;20044;-80
2022/05/04 03:59:04;;;;;;;11.10;5.03;;;;;;;11.53;32.83;99180.09;5075271;28;20045;-89
2022/05/04 04:01:31;;;;;;;16.27;4.80;;;;;;;11.67;32.59;99180.59;5061868;28;20043;-80
2022/05/04 04:03:57;;;;;;;13.93;4.78;;;;;;;11.74;32.68;99169.34;5078987;28;20040;-80
2022/05/04 04:06:23;;;;;;;14.98;4.38;;;;;;;11.94;32.59;99175.66;5096983;28;20509;-80
2022/05/04 04:08:50;;;;;;;18.17;4.50;;;;;;;12.04;32.04;99173.88;5062553;28;20348;-80
2022/05/04 04:11:18;;;;;;;24.73;4.80;;;;;;;12.11;32.32;99166.94;5078647;28;20139;-80
2022/05/04 04:13:44;;;;;;;13.82;3.85;;;;;;;12.28;31.92;99170.81;5062772;28;20053;-79
2022/05/04 04:16:10;;;;;;;20.55;4.72;;;;;;;12.38;32.12;99172.53;5096648;28;20109;-81
2022/05/04 04:18:36;;;;;;;15.90;4.70;;;;;;;12.54;31.91;99157.75;5061650;28;20078;-80
2022/05/04 04:23:47;;;;;;;21.15;3.88;;;;;;;12.89;31.45;99160.69;5094896;28;20487;-80
2022/05/04 04:26:13;;;;;;;8.55;3.30;;;;;;;13.06;30.97;99155.63;5061579;28;20182;-79
2022/05/04 04:28:39;;;;;;;10.13;3.28;;;;;;;13.10;30.55;99159.72;5078132;28;20472;-79
2022/05/04 04:31:08;;;;;;;11.20;3.40;;;;;;;13.21;30.39;99158.72;5061604;28;20125;-81
2022/05/04 04:33:37;;;;;;;14.63;3.72;;;;;;;13.25;30.42;99139.50;5061295;28;20048;-80
2022/05/04 04:36:05;;;;;;;10.85;3.30;;;;;;;13.45;30.56;99155.56;5078544;28;20048;-80
2022/05/04 04:38:31;;;;;;;46.58;4.35;;;;;;;13.60;30.27;99154.09;5096533;28;20070;-86
2022/05/04 04:40:58;;;;;;;11.02;3.40;;;;;;;13.75;30.06;99152.63;5078096;28;20047;-84
2022/05/04 04:43:24;;;;;;;10.23;3.70;;;;;;;13.80;29.80;99134.25;5096746;28;20483;-82
2022/05/04 04:45:50;;;;;;;10.73;3.45;;;;;;;14.04;29.60;99148.97;5095222;28;20047;-79
2022/05/04 04:48:17;;;;;;;13.40;3.17;;;;;;;14.12;29.28;99145.53;5078431;28;20040;-80
2022/05/04 04:50:47;;;;;;;13.63;3.63;;;;;;;14.24;29.50;99153.22;5061404;28;20047;-81
2022/05/04 04:53:17;;;;;;;13.82;3.97;;;;;;;14.43;29.26;99132.59;5097514;28;20078;-80
2022/05/04 04:55:44;;;;;;;16.65;3.63;;;;;;;14.65;29.23;99144.78;5096233;28;20047;-80
2022/05/04 04:58:11;;;;;;;16.38;3.40;;;;;;;14.73;28.56;99137.63;5078477;28;20058;-81
2022/05/04 05:00:37;;;;;;;11.82;3.65;;;;;;;14.75;28.30;99122.19;5096591;28;20063;-81
2022/05/04 05:03:03;;;;;;;12.77;3.33;;;;;;;14.89;27.96;99136.06;5068507;28;20093;-80
2022/05/04 05:05:29;;;;;;;9.60;4.20;;;;;;;15.02;28.08;99141.91;5085944;28;20047;-81
2022/05/04 05:07:56;;;;;;;9.88;3.53;;;;;;;15.06;27.56;99129.84;5084497;28;20031;-80
2022/05/04 05:10:21;;;;;;;25.30;3.80;;;;;;;14.98;27.55;99121.69;5063819;28;20051;-79
2022/05/04 05:12:50;;;;;;;7.93;3.10;;;;;;;15.08;27.32;99135.88;5095676;28;20464;-79
2022/05/04 05:18:01;;;;;;;8.25;2.90;;;;;;;15.20;26.60;99128.44;5095505;28;20045;-79
2022/05/04 05:20:27;;;;;;;9.40;2.40;;;;;;;15.30;26.25;99123.75;5077829;28;20048;-79
2022/05/04 05:22:53;;;;;;;10.50;2.47;;;;;;;15.48;26.58;99111.09;5076837;28;20094;-81
2022/05/04 05:25:19;;;;;;;12.95;2.92;;;;;;;15.71;26.08;99124.88;5046154;28;20443;-80
2022/05/04 05:27:45;;;;;;;16.30;3.33;;;;;;;15.65;25.94;99125.53;5082679;28;20047;-80
2022/05/04 05:30:13;;;;;;;5.65;2.70;;;;;;;15.65;25.80;99112.06;5066036;28;20533;-80
2022/05/04 05:32:39;;;;;;;14.50;2.95;;;;;;;15.66;25.85;99112.91;5083197;28;20044;-79
2022/05/04 05:35:08;;;;;;;;;;;;;;;15.87;25.64;99112.47;5100859;28;20135;-78
2022/05/04 05:37:33;;;;;;;10.10;3.20;;;;;;;15.88;25.51;99100.72;5080752;28;19963;-80
2022/05/04 05:40:00;;;;;;;7.20;2.55;;;;;;;15.97;25.45;99107.81;5098878;28;20056;-81
2022/05/04 05:42:25;;;;;;;4.80;2.35;;;;;;;16.12;25.01;99102.63;5097428;28;20054;-80
2022/05/04 05:44:51;;;;;;;5.95;2.38;;;;;;;16.38;24.66;99107.94;5082138;28;20131;-80
2022/05/04 05:47:17;;;;;;;10.63;1.88;;;;;;;16.36;23.73;99082.97;5099522;28;20040;-79
2022/05/04 05:49:43;;;;;;;4.03;1.63;;;;;;;16.46;23.50;99110.66;5101187;28;20479;-80
2022/05/04 05:52:09;;;;;;;4.32;1.60;;;;;;;16.40;23.50;99101.38;5102909;28;20108;-80
2022/05/04 05:54:35;;;;;;;13.73;1.90;;;;;;;16.49;23.75;99094.97;5068601;28;20443;-82
2022/05/04 05:57:01;;;;;;;7.82;1.90;;;;;;;16.68;23.34;99109.16;5103400;28;20552;-79
2022/05/04 05:59:27;;;;;;;5.75;1.52;;;;;;;16.60;22.48;99099.19;5083983;28;20036;-81
2022/05/04 06:01:53;;;;;;;2.42;1.52;;;;;;;16.55;22.86;99103.41;5100265;28;20047;-80
2022/05/04 06:04:19;;;;;;;3.22;1.55;;;;;;;16.57;22.48;99091.44;5082953;28;20410;-80
2022/05/04 06:06:46;;;;;;;6.72;1.58;;;;;;;16.66;23.13;99100.38;5083771;28;20514;-79
2022/05/04 06:09:12;;;;;;;14.48;1.80;;;;;;;16.81;22.75;99097.88;5083021;28;20061;-81
2022/05/04 06:11:38;;;;;;;4.10;1.50;;;;;;;16.86;22.90;99096.38;5065422;28;20073;-80
2022/05/04 06:14:04;;;;;;;8.60;1.75;;;;;;;17.07;22.84;99092.31;5048111;28;20044;-82
2022/05/04 06:16:29;;;;;;;6.03;1.75;;;;;;;17.02;22.42;99091.97;5060887;28;20075;-80
2022/05/04 06:18:55;;;;;;;7.68;1.58;;;;;;;17.02;22.31;99083.88;5094913;28;20044;-79
2022/05/04 06:21:21;;;;;;;4.15;1.30;;;;;;;16.95;22.72;99089.09;5076643;28;20509;-79
2022/05/04 06:23:47;;;;;;;11.02;1.77;;;;;;;17.00;22.50;99081.38;5093579;28;20544;-80
2022/05/04 06:26:14;;;;;;;2.40;1.50;;;;;;;17.17;22.48;99080.31;5092792;28;20086;-80
2022/05/04 06:28:40;;;;;;;15.52;1.83;;;;;;;17.24;22.43;99062.41;5094096;28;20540;-80
2022/05/04 06:34:08;;;;;;;2.33;1.10;;;;;;;17.58;22.13;99072.09;5058889;28;20050;-79
2022/05/04 06:36:34;;;;;;;7.35;1.75;;;;;;;17.48;21.76;99060.63;5059063;28;20126;-80
2022/05/04 06:39:01;;;;;;;9.50;1.80;;;;;;;17.50;22.14;99064.03;5059620;28;20411;-79
2022/05/04 06:41:27;;;;;;;2.13;1.20;;;;;;;17.59;21.82;99065.66;5093609;28;20075;-79
2022/05/04 06:43:53;;;;;;;4.82;1.15;;;;;;;17.42;22.15;99037.03;5092635;28;20047;-80
2022/05/04 06:46:20;;;;;;;3.50;1.42;;;;;;;17.59;21.82;99062.13;5075474;28;20048;-80
2022/05/04 06:48:46;;;;;;;6.22;1.30;;;;;;;17.64;22.28;99060.59;5093633;28;20138;-79
2022/05/04 06:51:12;;;;;;;4.85;1.40;;;;;;;17.69;21.49;99057.38;5058880;28;20051;-79
2022/05/04 06:53:38;;;;;;;2.25;1.15;;;;;;;17.82;21.64;99049.56;5058556;28;20044;-80
2022/05/04 06:56:04;;;;;;;3.83;1.10;;;;;;;17.72;21.48;99044.34;5093614;28;20104;-81
2022/05/04 06:58:30;;;;;;;7.00;1.20;;;;;;;17.71;21.19;99045.38;5092201;28;20036;-79
2022/05/04 07:00:56;;;;;;;4.63;1.33;;;;;;;17.90;21.14;99037.84;5075382;28;20047;-80
2022/05/04 07:03:22;;;;;;;2.53;1.17;;;;;;;18.23;21.07;99034.97;5093246;28;20048;-80
2022/05/04 07:05:49;;;;;;;6.22;1.73;;;;;;;18.41;21.58;99043.63;5075163;28;20048;-80
2022/05/04 07:08:15;;;;;;;3.85;1.80;;;;;;;18.38;21.06;99031.28;5093548;28;20044;-79
2022/05/04 07:10:41;;;;;;;5.97;1.27;;;;;;;18.42;21.12;99035.31;5075838;28;20040;-79
2022/05/04 07:13:07;;;;;;;9.80;1.50;;;;;;;18.56;21.11;99041.81;5075728;28;20047;-79
2022/05/04 07:15:33;;;;;;;5.68;1.30;;;;;;;18.60;20.92;99020.66;5058477;28;20130;-80
2022/05/04 07:17:59;;;;;;;5.20;1.70;;;;;;;18.83;20.66;99031.47;5092117;28;20051;-81
2022/05/04 07:20:25;;;;;;;8.95;1.83;;;;;;;19.03;20.62;99029.94;5058994;28;20035;-80
2022/05/04 07:22:51;;;;;;;1.75;1.48;;;;;;;19.33;20.66;99027.22;5058341;28;20056;-80
2022/05/04 07:25:18;;;;;;;2.42;1.40;;;;;;;19.50;20.35;99026.03;5041984;28;20046;-79
2022/05/04 07:27:43;;;;;;;7.90;1.60;;;;;;;19.57;20.18;99020.69;5075189;28;20043;-80
2022/05/04 07:30:10;;;;;;;8.90;1.30;;;;;;;19.50;19.81;99019.78;5074860;28;20139;-79
2022/05/04 07:32:37;;;;;;;4.97;1.80;;;;;;;19.56;19.76;99003.59;5093030;28;20063;-80
2022/05/04 07:35:05;;;;;;;5.35;1.33;;;;;;;19.71;20.04;99002.75;5058218;28;20051;-80
2022/05/04 07:37:31;;;;;;;9.77;2.10;;;;;;;19.73;19.70;98987.13;5091877;28;20097;-79
2022/05/04 07:42:41;;;;;;;8.48;1.40;;;;;;;19.38;19.74;99017.53;5091882;28;20498;-80
2022/05/04 07:45:09;;;;;;;2.58;1.42;;;;;;;19.07;19.85;99000.59;5091693;28;20051;-80
2022/05/04 07:47:36;;;;;;;6.97;1.53;;;;;;;18.80;20.29;99000.19;5074692;28;20493;-80
2022/05/04 07:50:04;;;;;;;4.93;1.30;;;;;;;18.56;20.37;98998.50;5042508;28;20051;-81
2022/05/04 07:52:30;;;;;;;5.57;1.30;;;;;;;18.58;20.42;98980.25;5075409;28;20044;-79
2022/05/04 07:54:57;;;;;;;7.50;1.50;;;;;;;18.92;20.62;98992.47;5077006;28;20040;-80
2022/05/04 07:57:23;;;;;;;7.82;1.60;;;;;;;19.39;20.50;99007.53;5065657;28;20044;-87
2022/05/04 08:05:22;;;;;;;5.88;1.58;;;;;;;18.92;20.04;98982.47;5114545;28;20040;-83
2022/05/04 08:07:48;;;;;;;7.18;1.45;;;;;;;18.73;20.89;98979.44;5095815;28;20039;-85
2022/05/04 08:10:14;;;;;;;2.88;1.40;;;;;;;18.83;20.64;98974.59;5079976;28;20104;-95
2022/05/04 08:12:40;;;;;;;1.48;1.08;;;;;;;19.29;20.19;98964.44;5096249;28;20040;-86
2022/05/04 08:15:06;;;;;;;9.43;1.48;;;;;;;19.59;20.25;98989.63;5096705;28;20070;-86
2022/05/04 08:17:33;;;;;;;2.97;1.73;;;;;;;19.61;20.29;98992.19;5079814;28;20047;-84
2022/05/04 08:19:59;;;;;;;1.77;1.23;;;;;;;19.72;19.56;98977.31;5115572;28;20124;-86
2022/05/04 08:22:26;;;;;;;7.35;1.10;;;;;;;20.08;19.30;98978.16;5123203;28;20111;-87
2022/05/04 08:24:52;;;;;;;2.10;1.20;;;;;;;20.29;19.32;98969.16;5085113;28;20048;-77
2022/05/04 08:27:19;;;;;;;5.93;1.95;;;;;;;20.58;19.44;98968.22;5079707;28;20046;-86
2022/05/04 08:29:46;;;;;;;3.92;1.40;;;;;;;20.34;19.05;98955.84;5078561;28;20047;-79
2022/05/04 08:32:13;;;;;;;7.20;1.80;;;;;;;20.50;19.32;98962.94;5114429;28;20044;-89
2022/05/04 08:34:40;;;;;;;4.38;1.40;;;;;;;20.46;19.12;98964.31;5078675;28;20048;-79
2022/05/04 08:37:06;;;;;;;1.20;1.10;;;;;;;20.17;18.62;98959.88;5081156;28;20107;-91
2022/05/04 08:43:48;;;;;;;10.07;1.48;;;;;;;21.26;18.33;98954.03;5113042;28;20042;-80
2022/05/04 08:46:15;;;;;;;2.08;1.13;;;;;;;21.20;18.37;98939.38;5115259;28;20040;-78
2022/05/04 08:48:43;;;;;;;8.40;1.50;;;;;;;21.08;18.39;98947.25;5116933;28;20040;-78
2022/05/04 08:51:10;;;;;;;2.08;1.10;;;;;;;21.22;19.03;98926.44;5081885;28;20043;-77
2022/05/04 08:53:42;;;;;;;1.30;1.13;;;;;;;21.47;17.93;98937.63;5099028;28;20127;-80
2022/05/04 08:56:08;;;;;;;4.70;1.10;;;;;;;20.88;18.28;98931.88;5098374;28;20406;-81
2022/05/04 08:58:37;;;;;;;8.68;1.70;;;;;;;20.52;18.44;98939.13;5098233;28;20142;-80
2022/05/04 09:01:04;;;;;;;1.65;1.27;;;;;;;20.59;18.67;98937.28;5116300;28;20088;-76
2022/05/04 09:03:32;;;;;;;6.50;1.67;;;;;;;20.88;18.51;98927.28;5115714;28;20134;-76
2022/05/04 09:05:58;;;;;;;3.50;1.73;;;;;;;21.58;18.28;98931.63;5115778;28;20043;-76
2022/05/04 09:08:25;;;;;;;7.72;1.30;;;;;;;22.10;17.91;98928.41;5096789;28;20395;-78
2022/05/04 09:10:51;;;;;;;7.32;1.33;;;;;;;22.20;17.60;98924.28;5063685;28;20043;-76
2022/05/04 09:13:20;;;;;;;4.40;1.30;;;;;;;22.58;17.38;98920.09;5115285;28;20046;-78
2022/05/04 09:15:46;;;;;;;11.35;1.60;;;;;;;22.83;16.58;98923.84;5080323;28;20054;-77
2022/05/04 09:18:16;;;;;;;14.63;1.88;;;;;;;22.74;17.04;98901.41;5080833;28;20074;-79
2022/05/04 09:20:45;;;;;;;5.47;1.42;;;;;;;23.21;16.81;98913.09;5081868;28;20133;-77
2022/05/04 09:23:13;;;;;;;2.13;1.10;;;;;;;22.88;16.25;98926.75;5118802;28;20428;-76
2022/05/04 09:25:39;;;;;;;6.10;1.10;;;;;;;22.15;16.63;98920.47;5115533;28;20043;-80
2022/05/04 09:28:12;;;;;;;5.15;1.33;;;;;;;21.97;16.90;98913.75;5079825;28;20458;-75
2022/05/04 09:31:03;;;;;;;5.03;1.00;;;;;;;22.18;17.61;98909.19;5112329;28;20047;-76
2022/05/04 09:33:34;;;;;;;7.20;1.42;;;;;;;22.69;17.05;98905.84;5091079;28;20123;-76
2022/05/04 09:36:04;;;;;;;3.55;1.20;;;;;;;22.83;16.68;98902.03;5084200;28;20054;-76
2022/05/04 09:44:54;;;;;;;9.23;2.45;;;;;;;22.95;16.38;98891.34;5089049;28;20036;-77
2022/05/04 09:47:18;;;;;;;7.88;1.10;;;;;;;23.15;16.24;98872.19;5095120;28;20040;-76
2022/05/04 09:49:47;;;;;;;8.27;1.48;;;;;;;23.75;16.48;98884.53;5077148;28;20054;-76
2022/05/04 09:52:14;;;;;;;6.97;1.38;;;;;;;24.17;15.46;98889.50;5059577;28;20533;-78
2022/05/04 09:54:40;;;;;;;3.25;1.85;;;;;;;24.42;15.56;98882.19;5094819;28;20082;-77
2022/05/04 09:57:06;;;;;;;3.15;1.05;;;;;;;24.57;15.48;98872.81;5093759;28;20164;-76
2022/05/04 09:59:35;;;;;;;6.53;1.70;;;;;;;24.41;15.17;98876.94;5076942;28;20048;-76
2022/05/04 10:02:13;;;;;;;6.72;1.10;;;;;;;24.61;15.14;98876.75;5076366;28;20097;-76
2022/05/04 10:04:39;;;;;;;4.07;1.13;;;;;;;24.55;14.79;98866.72;5096717;28;20043;-77
2022/05/04 10:07:05;;;;;;;2.38;0.98;;;;;;;23.94;15.05;98865.50;5085175;28;20093;-76
2022/05/04 10:09:32;;;;;;;3.22;1.20;;;;;;;23.77;15.95;98870.69;5095248;28;20047;-76
2022/05/04 10:11:59;;;;;;;7.55;1.55;;;;;;;24.17;15.58;98867.66;5076738;28;20039;-75
2022/05/04 10:14:27;;;;;;;10.85;1.40;;;;;;;23.64;15.52;98865.25;5059601;28;20036;-77
2022/05/04 10:17:15;;;;;;;5.55;1.77;;;;;;;22.62;15.72;98861.41;5092947;28;20056;-76
2022/05/04 10:20:09;;;;;;;5.68;1.23;;;;;;;22.33;16.40;98862.69;5081036;28;20086;-76
2022/05/04 10:22:41;;;;;;;3.03;1.42;;;;;;;22.20;17.23;98839.03;5081513;28;20091;-76
2022/05/04 10:25:09;;;;;;;1.08;0.98;;;;;;;23.17;16.12;98837.34;5103933;28;20363;-76
2022/05/04 10:27:43;;;;;;;5.80;1.20;;;;;;;23.94;15.80;98832.75;5102408;28;20123;-77
2022/05/04 10:33:06;;;;;;;12.65;1.48;;;;;;;24.91;15.14;98839.44;5101708;28;20141;-78
2022/05/04 10:35:38;;;;;;;8.85;1.55;;;;;;;24.51;15.00;98835.44;5074184;28;21096;-76
2022/05/04 10:38:26;;;;;;;7.60;1.45;;;;;;;23.95;15.39;98840.72;5089968;28;20086;-78
2022/05/04 10:41:00;;;;;;;6.40;1.40;;;;;;;24.71;15.74;98836.06;5076258;28;20048;-78
2022/05/04 10:43:47;;;;;;;5.90;1.27;;;;;;;25.98;14.07;98816.13;5093313;28;20491;-79
2022/05/04 10:46:18;;;;;;;5.38;1.60;;;;;;;26.57;14.30;98826.09;5055432;28;20036;-78
2022/05/04 10:49:05;;;;;;;3.53;1.50;;;;;;;26.23;13.85;98825.00;5075692;28;20040;-77
2022/05/04 10:51:37;;;;;;;4.90;1.67;;;;;;;26.02;13.99;98817.34;5092259;28;20040;-75
2022/05/04 10:54:11;;;;;;;1.52;1.02;;;;;;;25.54;14.05;98815.50;5075531;28;20040;-78
2022/05/04 10:56:47;;;;;;;2.92;1.20;;;;;;;25.95;13.97;98824.81;5075698;28;20040;-77
2022/05/04 10:59:24;;;;;;;6.20;1.30;;;;;;;26.69;13.63;98820.59;5066952;28;20063;-78
2022/05/04 11:01:54;;;;;;;6.07;1.00;;;;;;;27.62;13.25;98810.47;5087668;28;20495;-77
2022/05/04 11:04:22;;;;;;;6.10;1.13;;;;;;;28.55;12.77;98814.53;5105909;28;20067;-79
2022/05/04 11:06:55;;;;;;;2.17;1.30;;;;;;;27.39;12.16;98822.38;5101956;28;20040;-77
2022/05/04 11:09:25;;;;;;;1.30;0.82;;;;;;;27.19;12.57;98822.78;5092458;28;20088;-77
2022/05/04 11:11:56;;;;;;;6.50;0.98;;;;;;;26.08;13.20;98810.91;5070581;28;20043;-76
2022/05/04 11:14:23;;;;;;;6.50;1.17;;;;;;;25.22;13.97;98813.00;5091406;28;20036;-78
2022/05/04 11:16:51;;;;;;;2.90;1.23;;;;;;;25.24;14.00;98791.75;5102727;28;20066;-76
2022/05/04 11:19:18;;;;;;;3.53;1.50;;;;;;;26.09;13.76;98793.41;5087222;28;20446;-77
2022/05/04 11:21:45;;;;;;;3.30;1.00;;;;;;;27.16;13.16;98790.38;5067263;28;20410;-77
2022/05/04 11:24:13;;;;;;;2.60;0.98;;;;;;;28.43;12.63;98788.22;5083573;28;20047;-77
2022/05/04 11:26:50;;;;;;;3.45;1.00;;;;;;;28.76;11.99;98771.63;5061145;28;20192;-76
2022/05/04 11:29:28;;;;;;;2.55;1.02;;;;;;;28.94;12.10;98769.69;5098248;28;20119;-77
2022/05/04 11:31:56;;;;;;;3.78;1.20;;;;;;;29.15;11.79;98779.88;5079020;28;20032;-76
2022/05/04 11:34:28;;;;;;;1.02;0.90;;;;;;;29.73;11.77;98775.53;5085999;28;20031;-76
2022/05/04 11:36:57;;;;;;;6.13;1.15;;;;;;;30.19;11.28;98756.66;5090963;28;20499;-75
2022/05/04 11:39:23;;;;;;;;;;;;;;;30.28;11.04;98789.25;5083863;28;20043;-76
2022/05/04 11:41:51;;;;;;;6.95;2.60;;;;;;;30.01;11.20;98781.84;5073398;28;19924;-76
2022/05/04 11:44:21;;;;;;;5.38;1.20;;;;;;;29.60;11.36;98777.88;5099946;28;20031;-76
2022/05/04 11:46:48;;;;;;;2.97;0.70;;;;;;;28.42;11.72;98772.81;5103428;28;20047;-77
2022/05/04 11:49:14;;;;;;;1.23;1.10;;;;;;;26.62;12.98;98776.03;5091658;28;20043;-77
2022/05/04 11:51:42;;;;;;;7.95;1.30;;;;;;;26.12;13.25;98768.28;5085658;28;20044;-78
2022/05/04 11:54:08;;;;;;;3.50;1.15;;;;;;;26.63;13.46;98751.13;5085913;28;20134;-76
2022/05/04 11:56:35;;;;;;;1.55;1.33;;;;;;;28.50;12.22;98753.13;5101890;28;20413;-77
2022/05/04 11:59:02;;;;;;;8.68;1.50;;;;;;;29.20;11.93;98735.88;5088689;28;20659;-77
2022/05/04 12:01:29;;;;;;;19.13;2.70;;;;;;;29.92;11.55;98751.19;5077144;28;20474;-76
2022/05/04 12:03:55;;;;;;;8.02;2.40;;;;;;;31.02;11.05;98758.78;5112394;28;20043;-75
2022/05/04 12:06:22;;;;;;;13.88;2.40;;;;;;;31.40;10.44;98751.19;5060787;28;20517;-76
2022/05/04 12:08:49;;;;;;;8.27;2.40;;;;;;;32.03;10.33;98739.94;5077512;28;20036;-76